createdAt,value
2022-11-30T00:01:25.706Z,4.78
2022-11-30T00:03:55.174Z,4.74
2022-11-30T00:06:24.084Z,4.75
2022-11-30T00:08:55.883Z,4.71
2022-11-30T00:11:25.614Z,4.73
2022-11-30T00:13:54.905Z,4.72
2022-11-30T00:16:24.415Z,4.72
2022-11-30T00:18:52.912Z,4.72
2022-11-30T00:21:21.177Z,4.72
2022-11-30T00:23:50.493Z,4.71
2022-11-30T00:26:22.940Z,4.66
2022-11-30T00:28:51.194Z,4.68
2022-11-30T00:31:20.053Z,4.71
2022-11-30T00:33:48.434Z,4.73
2022-11-30T00:36:18.659Z,4.74
2022-11-30T00:38:47.534Z,4.76
2022-11-30T00:41:15.827Z,4.73
2022-11-30T00:43:45.374Z,4.74
2022-11-30T00:46:13.601Z,4.74
2022-11-30T00:48:42.533Z,4.73
2022-11-30T00:51:12.681Z,4.72
2022-11-30T00:53:42.045Z,4.70
2022-11-30T00:56:10.606Z,4.70
2022-11-30T00:58:38.568Z,4.73
2022-11-30T01:01:08.701Z,4.73
2022-11-30T01:03:37.820Z,4.73
2022-11-30T01:06:06.602Z,4.72
2022-11-30T01:08:35.051Z,4.71
2022-11-30T01:11:08.935Z,4.71
2022-11-30T01:13:37.388Z,4.68
2022-11-30T01:16:16.195Z,4.66
2022-11-30T01:18:44.777Z,4.58
2022-11-30T01:21:16.443Z,4.61
2022-11-30T01:23:45.020Z,4.60
2022-11-30T01:26:13.859Z,4.58
2022-11-30T01:28:44.081Z,4.55
2022-11-30T01:31:15.325Z,4.53
2022-11-30T01:33:43.509Z,4.52
2022-11-30T01:36:13.365Z,4.52
2022-11-30T01:38:43.040Z,4.53
2022-11-30T01:41:12.823Z,4.56
2022-11-30T01:43:43.221Z,4.58
2022-11-30T01:46:33.910Z,4.59
2022-11-30T01:49:07.806Z,4.59
2022-11-30T01:51:41.579Z,4.60
2022-11-30T01:54:12.002Z,4.61
2022-11-30T01:56:49.399Z,4.63
2022-11-30T01:59:18.438Z,4.66
2022-11-30T02:01:48.435Z,4.69
2022-11-30T02:04:21.698Z,4.71
2022-11-30T02:06:50.504Z,4.72
2022-11-30T02:09:20.934Z,4.74
2022-11-30T02:11:49.706Z,4.71
2022-11-30T02:14:32.249Z,4.69
2022-11-30T02:17:16.848Z,4.67
2022-11-30T02:20:17.796Z,4.66
2022-11-30T02:23:04.521Z,4.71
2022-11-30T02:25:44.328Z,4.70
2022-11-30T02:28:37.511Z,4.68
2022-11-30T02:31:12.625Z,4.66
2022-11-30T02:33:42.599Z,4.66
2022-11-30T02:36:11.748Z,4.67
2022-11-30T02:38:40.802Z,4.68
2022-11-30T02:41:08.848Z,4.67
2022-11-30T02:43:37.245Z,4.70
2022-11-30T02:46:12.947Z,4.74
2022-11-30T02:48:46.450Z,4.76
2022-11-30T02:51:19.186Z,4.80
2022-11-30T02:53:48.377Z,4.83
2022-11-30T02:56:16.414Z,4.87
2022-11-30T02:58:44.643Z,4.88
2022-11-30T03:01:14.048Z,4.88
2022-11-30T03:03:42.056Z,4.86
2022-11-30T03:06:21.484Z,4.87
2022-11-30T03:08:49.463Z,4.90
2022-11-30T03:11:18.029Z,4.92
2022-11-30T03:13:46.029Z,4.93
2022-11-30T03:16:16.049Z,4.93
2022-11-30T03:18:46.189Z,4.91
2022-11-30T03:21:14.438Z,4.90
2022-11-30T03:23:42.596Z,4.87
2022-11-30T03:26:10.703Z,4.88
2022-11-30T03:28:38.745Z,4.88
2022-11-30T03:31:06.970Z,4.87
2022-11-30T03:33:36.411Z,4.88
2022-11-30T03:36:06.649Z,4.84
2022-11-30T03:38:35.014Z,4.81
2022-11-30T03:41:03.938Z,4.83
2022-11-30T03:43:32.024Z,4.84
2022-11-30T03:46:00.097Z,4.81
2022-11-30T03:48:28.173Z,4.85
2022-11-30T03:50:57.731Z,4.86
2022-11-30T03:53:26.502Z,4.84
2022-11-30T03:55:55.988Z,4.84
2022-11-30T03:58:25.759Z,4.87
2022-11-30T04:01:00.622Z,4.86
2022-11-30T04:03:28.711Z,4.89
2022-11-30T04:05:58.580Z,4.92
2022-11-30T04:08:30.102Z,4.90
2022-11-30T04:11:00.170Z,4.92
2022-11-30T04:13:31.048Z,4.94
2022-11-30T04:15:59.188Z,4.95
2022-11-30T04:18:28.354Z,4.97
2022-11-30T04:20:59.673Z,4.97
2022-11-30T04:23:31.006Z,4.93
2022-11-30T04:25:59.281Z,4.90
2022-11-30T04:28:27.483Z,4.87
2022-11-30T04:30:55.841Z,4.87
2022-11-30T04:33:23.997Z,4.88
2022-11-30T04:35:56.203Z,4.86
2022-11-30T04:38:26.425Z,4.84
2022-11-30T04:40:54.410Z,4.81
2022-11-30T04:43:22.774Z,4.75
2022-11-30T04:45:51.162Z,4.73
2022-11-30T04:48:20.147Z,4.69
2022-11-30T04:50:48.282Z,4.64
2022-11-30T04:53:16.242Z,4.57
2022-11-30T04:55:45.612Z,4.55
2022-11-30T04:58:13.583Z,4.52
2022-11-30T05:00:41.520Z,4.51
2022-11-30T05:03:09.429Z,4.50
2022-11-30T05:05:37.386Z,4.48
2022-11-30T05:08:05.357Z,4.51
2022-11-30T05:10:36.788Z,4.52
2022-11-30T05:13:07.364Z,4.52
2022-11-30T05:15:36.660Z,4.52
2022-11-30T05:18:04.857Z,4.48
2022-11-30T05:20:32.822Z,4.45
2022-11-30T05:23:00.790Z,4.44
2022-11-30T05:25:33.351Z,4.36
2022-11-30T05:28:01.384Z,4.33
2022-11-30T05:30:30.797Z,4.32
2022-11-30T05:32:58.721Z,4.30
2022-11-30T05:35:27.004Z,4.29
2022-11-30T05:37:55.437Z,4.30
2022-11-30T05:40:37.340Z,4.30
2022-11-30T05:43:06.321Z,4.29
2022-11-30T05:45:35.709Z,4.29
2022-11-30T05:48:03.707Z,4.29
2022-11-30T05:50:39.686Z,4.30
2022-11-30T05:53:07.671Z,4.28
2022-11-30T05:55:36.260Z,4.28
2022-11-30T05:58:04.233Z,4.29
2022-11-30T06:00:32.203Z,4.30
2022-11-30T06:03:01.623Z,4.31
2022-11-30T06:05:30.425Z,4.34
2022-11-30T06:08:00.799Z,4.36
2022-11-30T06:10:28.826Z,4.37
2022-11-30T06:12:56.767Z,4.36
2022-11-30T06:15:25.219Z,4.35
2022-11-30T06:17:56.700Z,4.33
2022-11-30T06:20:27.604Z,4.29
2022-11-30T06:22:55.713Z,4.26
2022-11-30T06:25:24.423Z,4.26
2022-11-30T06:27:52.818Z,4.24
2022-11-30T06:30:34.750Z,4.23
2022-11-30T06:33:02.751Z,4.22
2022-11-30T06:35:34.878Z,4.22
2022-11-30T06:38:02.842Z,4.24
2022-11-30T06:40:31.090Z,4.26
2022-11-30T06:42:59.216Z,4.27
2022-11-30T06:45:30.925Z,4.30
2022-11-30T06:47:59.244Z,4.33
2022-11-30T06:50:27.282Z,4.33
2022-11-30T06:52:57.080Z,4.36
2022-11-30T06:55:25.838Z,4.36
2022-11-30T06:57:53.852Z,4.38
2022-11-30T07:00:22.782Z,4.39
2022-11-30T07:02:50.695Z,4.38
2022-11-30T07:05:21.696Z,4.36
2022-11-30T07:07:49.715Z,4.37
2022-11-30T07:10:20.353Z,4.38
2022-11-30T07:12:48.482Z,4.41
2022-11-30T07:15:18.315Z,4.42
2022-11-30T07:17:46.271Z,4.40
2022-11-30T07:20:14.891Z,4.42
2022-11-30T07:22:42.930Z,4.38
2022-11-30T07:25:42.889Z,4.33
2022-11-30T07:28:12.377Z,4.35
2022-11-30T07:30:40.307Z,4.37
2022-11-30T07:33:08.277Z,4.38
2022-11-30T07:35:36.242Z,4.37
2022-11-30T07:38:09.466Z,4.41
2022-11-30T07:40:37.861Z,4.46
2022-11-30T07:43:05.836Z,4.49
2022-11-30T07:45:37.417Z,4.53
2022-11-30T07:48:05.497Z,4.55
2022-11-30T07:50:33.529Z,4.58
2022-11-30T07:53:01.431Z,4.63
2022-11-30T07:55:37.389Z,4.63
2022-11-30T07:58:05.339Z,4.64
2022-11-30T08:00:33.384Z,4.66
2022-11-30T08:03:02.768Z,4.69
2022-11-30T08:05:34.202Z,4.68
2022-11-30T08:08:02.247Z,4.68
2022-11-30T08:10:30.357Z,4.69
2022-11-30T08:12:58.299Z,4.72
2022-11-30T08:15:32.428Z,4.73
2022-11-30T08:18:06.026Z,4.78
2022-11-30T08:20:36.828Z,4.81
2022-11-30T08:23:04.756Z,4.84
2022-11-30T08:25:32.869Z,4.85
2022-11-30T08:28:00.902Z,4.86
2022-11-30T08:30:32.453Z,4.88
2022-11-30T08:33:02.335Z,4.92
2022-11-30T08:35:30.327Z,4.91
2022-11-30T08:37:58.263Z,4.89
2022-11-30T08:40:26.283Z,4.93
2022-11-30T08:42:56.498Z,4.95
2022-11-30T08:45:24.449Z,4.94
2022-11-30T08:47:52.391Z,4.94
2022-11-30T08:50:21.790Z,4.93
2022-11-30T08:52:49.742Z,4.90
2022-11-30T08:55:17.849Z,4.94
2022-11-30T08:57:45.832Z,4.94
2022-11-30T09:00:14.833Z,4.97
2022-11-30T09:02:42.961Z,4.96
2022-11-30T09:05:11.353Z,4.93
2022-11-30T09:07:41.326Z,5.01
2022-11-30T09:10:10.363Z,4.99
2022-11-30T09:12:39.633Z,5.00
2022-11-30T09:15:10.830Z,4.99
2022-11-30T09:17:38.906Z,4.98
2022-11-30T09:20:08.889Z,5.02
2022-11-30T09:22:36.827Z,5.03
2022-11-30T09:25:14.333Z,5.01
2022-11-30T09:27:42.738Z,5.01
2022-11-30T09:30:18.146Z,4.99
2022-11-30T09:32:46.182Z,4.97
2022-11-30T09:35:16.901Z,4.94
2022-11-30T09:37:45.064Z,4.90
2022-11-30T09:40:19.580Z,4.90
2022-11-30T09:42:57.547Z,4.89
2022-11-30T09:45:30.015Z,4.85
2022-11-30T09:48:19.548Z,4.82
2022-11-30T09:50:49.323Z,4.80
2022-11-30T09:53:28.921Z,4.84
2022-11-30T09:56:10.315Z,4.88
2022-11-30T09:58:46.943Z,4.91
2022-11-30T10:01:19.536Z,4.96
2022-11-30T10:03:48.121Z,4.95
2022-11-30T10:06:25.613Z,4.94
2022-11-30T10:09:12.644Z,4.94
2022-11-30T10:11:53.219Z,4.98
2022-11-30T10:14:33.890Z,4.97
2022-11-30T10:17:13.267Z,4.95
2022-11-30T10:19:58.504Z,4.98
2022-11-30T10:22:34.686Z,5.01
2022-11-30T10:25:14.545Z,5.09
2022-11-30T10:27:51.725Z,5.11
2022-11-30T10:30:23.445Z,5.16
2022-11-30T10:32:54.782Z,5.19
2022-11-30T10:35:35.998Z,5.24
2022-11-30T10:38:15.596Z,5.28
2022-11-30T10:40:49.060Z,5.32
2022-11-30T10:43:26.072Z,5.29
2022-11-30T10:45:54.271Z,5.27
2022-11-30T10:48:30.111Z,5.25
2022-11-30T10:50:58.810Z,5.27
2022-11-30T10:53:26.831Z,5.27
2022-11-30T10:56:02.081Z,5.31
2022-11-30T10:58:37.366Z,5.36
2022-11-30T11:01:08.168Z,5.40
2022-11-30T11:03:36.742Z,5.35
2022-11-30T11:06:14.129Z,5.36
2022-11-30T11:08:45.496Z,5.37
2022-11-30T11:11:29.686Z,5.41
2022-11-30T11:14:22.511Z,5.41
2022-11-30T11:16:53.451Z,5.43
2022-11-30T11:19:37.396Z,5.45
2022-11-30T11:22:08.262Z,5.43
2022-11-30T11:24:37.043Z,5.46
2022-11-30T11:27:05.197Z,5.48
2022-11-30T11:29:36.236Z,5.50
2022-11-30T11:32:20.030Z,5.51
2022-11-30T11:34:51.297Z,5.56
2022-11-30T11:37:23.293Z,5.60
2022-11-30T11:40:15.546Z,5.65
2022-11-30T11:42:47.980Z,5.71
2022-11-30T11:45:21.169Z,5.77
2022-11-30T11:48:02.593Z,5.83
2022-11-30T11:51:05.199Z,5.86
2022-11-30T11:53:25.373Z,5.89
2022-11-30T11:55:59.722Z,5.91
2022-11-30T11:58:39.539Z,5.93
2022-11-30T12:01:39.413Z,5.93
2022-11-30T12:04:21.683Z,5.92
2022-11-30T12:06:53.879Z,5.97
2022-11-30T12:09:28.679Z,5.93
2022-11-30T12:11:56.721Z,5.89
2022-11-30T12:14:27.151Z,5.80
2022-11-30T12:17:10.751Z,5.67
2022-11-30T12:19:47.677Z,5.60
2022-11-30T12:22:33.974Z,5.59
2022-11-30T12:25:22.466Z,5.64
2022-11-30T12:28:02.943Z,5.66
2022-11-30T12:30:41.419Z,5.71
2022-11-30T12:33:16.449Z,5.70
2022-11-30T12:36:06.055Z,5.70
2022-11-30T12:38:42.785Z,5.61
2022-11-30T12:41:26.189Z,5.60
2022-11-30T12:44:06.559Z,5.60
2022-11-30T12:46:42.977Z,5.60
2022-11-30T12:49:25.204Z,5.65
2022-11-30T12:52:10.541Z,5.67
2022-11-30T12:54:46.709Z,5.67
2022-11-30T12:57:22.987Z,5.67
2022-11-30T13:00:03.021Z,5.68
2022-11-30T13:02:50.711Z,5.69
2022-11-30T13:05:24.407Z,5.67
2022-11-30T13:08:09.135Z,5.66
2022-11-30T13:10:46.654Z,5.63
2022-11-30T13:13:19.707Z,5.59
2022-11-30T13:15:50.403Z,5.58
2022-11-30T13:18:20.768Z,5.58
2022-11-30T13:20:57.948Z,5.56
2022-11-30T13:23:35.983Z,5.55
2022-11-30T13:26:10.271Z,5.58
2022-11-30T13:28:58.698Z,5.60
2022-11-30T13:31:31.102Z,5.62
2022-11-30T13:34:00.145Z,5.61
2022-11-30T13:36:40.919Z,5.60
2022-11-30T13:39:24.102Z,5.59
2022-11-30T13:42:13.377Z,5.56
2022-11-30T13:44:43.142Z,5.52
2022-11-30T13:47:19.646Z,5.50
2022-11-30T13:49:55.242Z,5.46
2022-11-30T13:53:20.966Z,5.41
2022-11-30T13:55:57.199Z,5.38
2022-11-30T13:58:26.126Z,5.36
2022-11-30T14:04:32.997Z,5.29
2022-11-30T14:07:09.456Z,5.29
2022-11-30T14:09:57.687Z,5.26
2022-11-30T14:12:46.402Z,5.26
2022-11-30T14:15:44.120Z,5.27
2022-11-30T14:18:21.726Z,5.31
2022-11-30T14:20:54.226Z,5.30
2022-11-30T14:23:25.954Z,5.30
2022-11-30T14:26:10.237Z,5.28
2022-11-30T14:28:43.956Z,5.25
2022-11-30T14:31:19.749Z,5.24
2022-11-30T14:33:52.601Z,5.23
2022-11-30T14:36:21.965Z,5.18
2022-11-30T14:38:51.047Z,5.13
2022-11-30T14:41:26.959Z,5.10
2022-11-30T14:44:07.141Z,5.07
2022-11-30T14:46:36.306Z,5.06
2022-11-30T14:49:22.899Z,5.07
2022-11-30T14:51:54.420Z,5.06
2022-11-30T14:54:40.737Z,5.03
2022-11-30T14:57:20.159Z,5.01
2022-11-30T14:59:51.534Z,4.97
2022-11-30T15:02:25.278Z,4.95
2022-11-30T15:04:55.802Z,4.94
2022-11-30T15:07:26.072Z,4.94
2022-11-30T15:10:03.912Z,4.95
2022-11-30T15:12:40.186Z,4.96
2022-11-30T15:15:15.994Z,4.93
2022-11-30T15:17:58.900Z,4.84
2022-11-30T15:20:33.294Z,4.81
2022-11-30T15:23:01.804Z,4.78
2022-11-30T15:25:36.207Z,4.79
2022-11-30T15:28:06.935Z,4.82
2022-11-30T15:30:38.579Z,4.84
2022-11-30T15:33:06.707Z,4.86
2022-11-30T15:35:57.355Z,4.86
2022-11-30T15:38:26.912Z,4.89
2022-11-30T15:41:03.379Z,4.91
2022-11-30T15:43:44.309Z,4.89
2022-11-30T15:46:31.087Z,4.85
2022-11-30T15:49:16.787Z,4.79
2022-11-30T15:51:47.015Z,4.72
2022-11-30T15:54:15.590Z,4.72
2022-11-30T15:56:56.778Z,4.74
2022-11-30T15:59:28.974Z,4.75
2022-11-30T16:02:08.964Z,4.73
2022-11-30T16:05:10.854Z,4.70
2022-11-30T16:07:50.993Z,4.69
2022-11-30T16:10:21.843Z,4.69
2022-11-30T16:12:51.251Z,4.65
2022-11-30T16:15:23.696Z,4.63
2022-11-30T16:17:53.279Z,4.59
2022-11-30T16:20:21.999Z,4.61
2022-11-30T16:22:50.175Z,4.63
2022-11-30T16:25:20.105Z,4.60
2022-11-30T16:27:48.764Z,4.58
2022-11-30T16:30:18.858Z,4.59
2022-11-30T16:32:48.958Z,4.60
2022-11-30T16:35:24.786Z,4.61
2022-11-30T16:37:53.539Z,4.62
2022-11-30T16:40:21.470Z,4.63
2022-11-30T16:42:51.735Z,4.63
2022-11-30T16:45:22.318Z,4.62
2022-11-30T16:47:52.638Z,4.60
2022-11-30T16:50:21.229Z,4.52
2022-11-30T16:52:49.929Z,4.41
2022-11-30T16:55:19.782Z,4.37
2022-11-30T16:57:48.774Z,4.34
2022-11-30T17:00:19.066Z,4.28
2022-11-30T17:02:54.938Z,4.27
2022-11-30T17:05:23.023Z,4.24
2022-11-30T17:07:51.156Z,4.27
2022-11-30T17:10:19.931Z,4.28
2022-11-30T17:12:48.392Z,4.33
2022-11-30T17:15:20.916Z,4.33
2022-11-30T17:17:49.517Z,4.35
2022-11-30T17:20:19.756Z,4.35
2022-11-30T17:22:47.788Z,4.34
2022-11-30T17:25:18.395Z,4.32
2022-11-30T17:27:46.875Z,4.29
2022-11-30T17:30:16.743Z,4.25
2022-11-30T17:32:47.078Z,4.22
2022-11-30T17:35:15.514Z,4.20
2022-11-30T17:37:44.875Z,4.17
2022-11-30T17:40:15.537Z,4.14
2022-11-30T17:42:43.922Z,4.13
2022-11-30T17:45:12.381Z,4.08
2022-11-30T17:47:40.441Z,4.06
2022-11-30T17:50:09.783Z,4.09
2022-11-30T17:52:38.386Z,4.11
2022-11-30T17:55:09.241Z,4.14
2022-11-30T17:57:39.636Z,4.15
2022-11-30T18:00:09.719Z,4.16
2022-11-30T18:02:38.025Z,4.17
2022-11-30T18:05:06.651Z,4.16
2022-11-30T18:07:35.418Z,4.09
2022-11-30T18:10:03.519Z,4.11
2022-11-30T18:12:33.247Z,4.07
2022-11-30T18:15:02.876Z,4.04
2022-11-30T18:17:32.140Z,3.99
2022-11-30T18:20:00.263Z,3.95
2022-11-30T18:22:29.500Z,3.96
2022-11-30T18:24:57.449Z,3.93
2022-11-30T18:27:26.541Z,3.90
2022-11-30T18:29:55.931Z,3.91
2022-11-30T18:32:24.230Z,3.87
2022-11-30T18:34:52.219Z,3.86
2022-11-30T18:37:20.167Z,3.85
2022-11-30T18:39:48.377Z,3.82
2022-11-30T18:42:16.397Z,3.80
2022-11-30T18:44:44.407Z,3.82
2022-11-30T18:47:13.798Z,3.82
2022-11-30T18:49:41.744Z,3.84
2022-11-30T18:52:09.693Z,3.87
2022-11-30T18:54:37.749Z,3.92
2022-11-30T18:57:05.771Z,3.96
2022-11-30T18:59:33.741Z,4.00
2022-11-30T19:02:02.015Z,4.02
2022-11-30T19:04:31.435Z,4.02
2022-11-30T19:06:59.445Z,4.03
2022-11-30T19:09:27.417Z,4.05
2022-11-30T19:11:55.952Z,4.02
2022-11-30T19:14:25.244Z,4.02
2022-11-30T19:16:53.279Z,4.01
2022-11-30T19:19:21.726Z,4.03
2022-11-30T19:21:52.134Z,4.03
2022-11-30T19:24:20.197Z,4.01
2022-11-30T19:26:48.140Z,4.02
2022-11-30T19:29:16.068Z,4.04
2022-11-30T19:31:44.149Z,4.07
2022-11-30T19:34:13.260Z,4.06
2022-11-30T19:36:42.005Z,4.05
2022-11-30T19:39:12.087Z,4.04
2022-11-30T19:41:43.079Z,4.05
2022-11-30T19:44:15.329Z,4.04
2022-11-30T19:46:45.416Z,4.03
2022-11-30T19:49:13.624Z,4.03
2022-11-30T19:51:41.610Z,4.02
2022-11-30T19:54:11.001Z,4.02
2022-11-30T19:56:41.185Z,3.99
2022-11-30T19:59:09.122Z,3.95
2022-11-30T20:01:37.199Z,3.91
2022-11-30T20:04:06.010Z,3.87
2022-11-30T20:06:37.376Z,3.86
2022-11-30T20:09:06.777Z,3.82
2022-11-30T20:11:36.470Z,3.75
2022-11-30T20:14:04.844Z,3.70
2022-11-30T20:16:34.146Z,3.63
2022-11-30T20:19:05.026Z,3.55
2022-11-30T20:21:35.316Z,3.47
2022-11-30T20:24:06.918Z,3.42
2022-11-30T20:26:38.687Z,3.38
2022-11-30T20:29:08.460Z,3.35
2022-11-30T20:31:37.951Z,3.34
2022-11-30T20:34:09.037Z,3.36
2022-11-30T20:36:37.424Z,3.38
2022-11-30T20:39:05.699Z,3.39
2022-11-30T20:41:34.748Z,3.44
2022-11-30T20:44:04.547Z,3.47
2022-11-30T20:46:34.149Z,3.53
2022-11-30T20:49:03.602Z,3.57
2022-11-30T20:51:34.766Z,3.60
2022-11-30T20:54:06.927Z,3.62
2022-11-30T20:56:37.146Z,3.61
2022-11-30T20:59:08.771Z,3.56
2022-11-30T21:01:37.054Z,3.56
2022-11-30T21:04:05.320Z,3.57
2022-11-30T21:06:34.192Z,3.54
2022-11-30T21:09:02.168Z,3.44
2022-11-30T21:11:30.909Z,3.38
2022-11-30T21:14:02.082Z,3.35
2022-11-30T21:16:33.682Z,3.30
2022-11-30T21:19:02.716Z,3.28
2022-11-30T21:21:33.200Z,3.27
2022-11-30T21:24:02.845Z,3.28
2022-11-30T21:26:36.760Z,3.26
2022-11-30T21:29:09.076Z,3.25
2022-11-30T21:31:39.583Z,3.25
2022-11-30T21:34:07.646Z,3.25
2022-11-30T21:36:35.909Z,3.21
2022-11-30T21:39:07.085Z,3.22
2022-11-30T21:41:36.065Z,3.22
2022-11-30T21:44:04.306Z,3.22
2022-11-30T21:46:32.653Z,3.24
2022-11-30T21:49:02.493Z,3.24
2022-11-30T21:51:31.771Z,3.23
2022-11-30T21:54:02.824Z,3.26
2022-11-30T21:56:33.014Z,3.24
2022-11-30T21:59:01.372Z,3.23
2022-11-30T22:01:31.693Z,3.19
2022-11-30T22:04:02.669Z,3.18
2022-11-30T22:06:31.920Z,3.19
2022-11-30T22:09:03.480Z,3.18
2022-11-30T22:11:32.470Z,3.17
2022-11-30T22:14:00.557Z,3.19
2022-11-30T22:16:35.555Z,3.20
2022-11-30T22:19:07.740Z,3.21
2022-11-30T22:21:36.487Z,3.22
2022-11-30T22:24:06.936Z,3.25
2022-11-30T22:26:36.336Z,3.28
2022-11-30T22:29:06.577Z,3.29
2022-11-30T22:31:36.944Z,3.29
2022-11-30T22:34:06.736Z,3.27
2022-11-30T22:36:36.822Z,3.26
2022-11-30T22:39:07.496Z,3.27
2022-11-30T22:41:35.675Z,3.31
2022-11-30T22:44:04.541Z,3.35
2022-11-30T22:46:36.859Z,3.43
2022-11-30T22:49:08.358Z,3.46
2022-11-30T22:51:37.856Z,3.55
2022-11-30T22:54:06.762Z,3.59
2022-11-30T22:56:36.793Z,3.62
2022-11-30T22:59:06.316Z,3.63
2022-11-30T23:01:36.027Z,3.65
2022-11-30T23:04:10.305Z,3.63
2022-11-30T23:06:39.588Z,3.59
2022-11-30T23:09:09.744Z,3.54
2022-11-30T23:11:37.794Z,3.52
2022-11-30T23:14:08.227Z,3.53
2022-11-30T23:16:37.329Z,3.56
2022-11-30T23:19:07.689Z,3.58
2022-11-30T23:21:40.948Z,3.55
2022-11-30T23:24:13.817Z,3.53
2022-11-30T23:26:43.045Z,3.51
2022-11-30T23:29:14.317Z,3.52
2022-11-30T23:31:44.354Z,3.52
2022-11-30T23:34:16.194Z,3.51
2022-11-30T23:36:44.538Z,3.51
2022-11-30T23:39:14.333Z,3.51
2022-11-30T23:41:43.450Z,3.54
2022-11-30T23:44:12.371Z,3.56
2022-11-30T23:46:40.586Z,3.61
2022-11-30T23:49:09.020Z,3.63
2022-11-30T23:51:38.324Z,3.63
2022-11-30T23:54:06.955Z,3.61
2022-11-30T23:56:35.051Z,3.63
2022-11-30T23:59:03.062Z,3.58
